Sonic Adventure (DX): Time Rankings

Records: Times | Rings | Scores | Races | Bosses | Freestyle
Leaders: Times | Rings | Scores | Races | Bosses | Freestyle | Overall
Rank Player Percent Points Date
1 Sonicspeedruner 99.0% 48 05-25-15
2 Gamepro011 98.6% 72 05-25-15
3 Jawzun 96.2% 195 05-25-15
4 Dashjump 93.9% 311 05-25-15
5 DarkPolarNight 93.3% 347 05-25-15
6 THC98 92.0% 410 05-25-15
7 F-Man 91.6% 435 05-25-15
8 ike6252 90.3% 499 05-25-15
9 Avento128bits 90.1% 508 05-25-15
10 francisco 89.9% 521 05-25-15
11 DarkspinesSonic 89.5% 539 05-25-15
12 Marth 89.4% 549 05-25-15
13 frankoredstrato 88.0% 617 05-25-15
14 Paragod 84.9% 781 05-25-15
15 HyperSonic7701 84.8% 784 05-25-15
16 chainchumper 84.7% 792 05-25-15
17 drminus 83.7% 844 05-25-15
18 InferSaime 81.8% 939 05-25-15
19 TheRealShadnic 81.6% 948 05-25-15
20 Stefan 80.2% 1023 05-25-15
21 Redd 79.7% 1049 05-25-15
22 PfoSonic 79.6% 1056 05-25-15
23 Coolfansonic 77.9% 1141 05-25-15
24 bertin 77.8% 1149 05-25-15
25 yoshifan 77.3% 1175 05-25-15
26 xXMegaManXx 76.9% 1192 05-25-15
27 Dave Cramer 75.5% 1264 05-25-15
28 RPGnutter 75.0% 1292 05-25-15
29 Cybrax 73.4% 1375 05-25-15
30 sonicam 73.3% 1379 05-25-15
31 Ring Rush 70.5% 1526 05-25-15
32 mike89 69.7% 1568 05-25-15
33 NintenDan 69.4% 1580 05-25-15
34 SkyLights 65.6% 1780 05-25-15
35 Combo 64.0% 1861 05-25-15
36 SADXTryHard 62.1% 1960 05-25-15
37 P1 Pause 61.2% 2007 05-25-15
38 Nimrod 60.4% 2050 05-25-15
39 Game_Complete 59.3% 2104 05-25-15
40 Groudon199 59.3% 2107 05-25-15
41 Shadow Jacky 58.5% 2145 05-25-15
42 Dawid8404 58.4% 2154 05-25-15
43 VMU Player Banned 57.8% 2184 05-25-15
44 Thorn 57.2% 2216 05-25-15
45 Parax 56.1% 2273 05-25-15
46 SB737 56.0% 2277 05-25-15
46 The Knuckles Chao 56.0% 2277 05-25-15
48 SadisticMystic 55.7% 2292 05-25-15
49 Chao_Fan 55.6% 2298 05-25-15
50 KinkyCadence 55.3% 2315 05-25-15
51 mauserman 55.0% 2329 05-25-15
52 LittleBigness 54.9% 2333 05-25-15
52 Mastakirby 54.9% 2333 05-25-15
54 Psyknux 54.7% 2343 05-25-15
55 OmegaDJ 54.6% 2350 05-25-15
56 magnum12 53.7% 2395 05-25-15
57 Auriman1 53.7% 2398 05-25-15
58 Turbos 53.2% 2422 05-25-15
59 GreatStar 52.8% 2443 05-25-15
60 GerbilSoft 52.7% 2446 05-25-15
61 Webber3000 51.9% 2491 05-25-15
62 Hipertails12 51.7% 2499 05-25-15
63 James_Bertolli 48.7% 2657 05-25-15
64 Cream147 48.1% 2684 05-25-15
65 Skylace 47.9% 2696 05-25-15
66 welldooder64 47.7% 2708 05-25-15
67 Diamond 47.6% 2712 05-25-15
68 Omega Rafael Santos 47.6% 2714 05-25-15
69 Quartz 47.2% 2730 05-25-15
70 Psymar 47.1% 2740 05-25-15
71 SonicWinDX 47.0% 2741 05-25-15
72 teamblackarms 45.7% 2810 05-25-15
73 buddychaos0415 45.1% 2840 05-25-15
74 SilverSonic 44.9% 2850 05-25-15
75 WeegeeZV 44.3% 2883 05-25-15
76 itsPersonnal 44.3% 2884 05-25-15
77 Andrea Ritsu 44.1% 2893 05-25-15
78 SilvertheAlmighty 43.8% 2908 05-25-15
79 metanightmare22 42.9% 2955 05-25-15
80 lordmetalsonic 40.9% 3059 05-25-15
81 Arch 40.4% 3085 05-25-15
82 Termon 40.3% 3089 05-25-15
83 videogamemaster777 39.6% 3124 05-25-15
84 supersonicfan 39.2% 3147 05-25-15
85 Kanimayo_Jp 39.1% 3152 05-25-15
86 paulie9990 38.5% 3181 05-25-15
87 LilZero 38.2% 3200 05-25-15
88 FuzZerd 38.0% 3208 05-25-15
89 Don 37.5% 3233 05-25-15
90 eggFL 37.3% 3244 05-25-15
91 a_moustache 37.0% 3259 05-25-15
92 Fr3nZy 36.0% 3313 05-25-15
93 Siavash Tazari 36.0% 3315 05-25-15
94 Cod4Scopes 35.3% 3348 05-25-15
95 f0rever_zer0 34.8% 3375 05-25-15
96 Cyan Ryan 34.1% 3409 05-25-15
97 Austinf 34.1% 3410 05-25-15
98 supersonic465 33.9% 3419 05-25-15
98 Therio 33.9% 3419 05-25-15
100 LinksDarkArrows 33.8% 3424 05-25-15
101 danieldude 33.1% 3461 05-25-15
102 elecmouse101 32.8% 3476 05-25-15
103 Staf 32.7% 3485 05-25-15
104 BrokenArthritis 32.6% 3491 05-25-15
105 MiStEr_ShAoLiN 32.4% 3497 05-25-15
106 Xia 31.4% 3551 05-25-15
107 welshmoose05 30.9% 3578 05-25-15
108 Drakodan 30.5% 3600 05-25-15
109 Mcshuggets 30.0% 3622 05-25-15
110 The Great Lord Mick 29.7% 3637 05-25-15
111 Maxinfamily 29.5% 3650 05-25-15
112 joecoolgames 29.4% 3657 05-25-15
113 Aitamen 29.2% 3666 05-25-15
114 videogamer1014 29.1% 3671 05-25-15
115 Matt_TY 29.0% 3677 05-25-15
116 imazor017 28.9% 3681 05-25-15
117 dabestgamer 28.8% 3687 05-25-15
118 SuperSonic101 27.6% 3746 05-25-15
119 Shadowthegreat 27.5% 3755 05-25-15
119 superjupi 27.5% 3755 05-25-15
121 Hunters13 27.3% 3764 05-25-15
122 Rolken 26.9% 3784 05-25-15
123 SaviourDC 26.6% 3802 05-25-15
124 iarebored 26.5% 3807 05-25-15
125 sonamyfan666 26.2% 3819 05-25-15
126 Spinballwizard 26.1% 3825 05-25-15
127 SonicKnuckles 25.8% 3843 05-25-15
128 EngiNerd 25.0% 3884 05-25-15
129 adf 24.9% 3890 05-25-15
130 Megaman EXE565 24.3% 3918 05-25-15
131 The T 23.8% 3947 05-25-15
132 Platformer 23.3% 3972 05-25-15
133 Sonic Singularity 23.2% 3975 05-25-15
134 Pokemonmaster888 23.0% 3984 05-25-15
135 SeaWolf 23.0% 3988 05-25-15
136 timpkmn89 22.6% 4005 05-25-15
137 Swift Hobo 22.6% 4009 05-25-15
138 Rickyman48 22.2% 4028 05-25-15
139 Sondow 21.9% 4041 05-25-15
140 FoxBoy 21.3% 4076 05-25-15
140 KitsuneYamaro 21.3% 4076 05-25-15
142 TFEC Headshot 21.1% 4083 05-25-15
143 Kogen Player Banned 20.7% 4105 05-25-15
144 Starlight Sable 20.0% 4139 05-25-15
145 IsisDazs 19.5% 4167 05-25-15
146 HyperSonic64 19.3% 4176 05-25-15
147 crazy1993 18.8% 4201 05-25-15
148 andres430 18.6% 4212 05-25-15
149 MPit08 17.4% 4276 05-25-15
149 SonicAD 17.4% 4276 05-25-15
151 sonicd5 17.3% 4281 05-25-15
152 dShadow 16.7% 4311 05-25-15
152 iSonicKid2K 16.7% 4311 05-25-15
154 Miles9999 16.1% 4342 05-25-15
155 Cutiefox 16.0% 4347 05-25-15
156 Chawkk 16.0% 4348 05-25-15
157 BigAL49 16.0% 4350 05-25-15
158 Monkeh 15.7% 4366 05-25-15
159 DaDude 15.4% 4382 05-25-15
159 ethmar 15.4% 4382 05-25-15
161 Drflash55 15.1% 4393 05-25-15
162 Yish 14.7% 4417 05-25-15
163 Bass 14.6% 4422 05-25-15
164 neaolas 14.5% 4428 05-25-15
165 Cruizer 14.3% 4437 05-25-15
165 UninspiredUsername 14.3% 4437 05-25-15
167 superiorsonic 14.3% 4438 05-25-15
168 zapp 14.1% 4446 05-25-15
169 gamefreak1292 13.9% 4458 05-25-15
170 Cooljay 13.2% 4492 05-25-15
171 SonicU260 12.9% 4509 05-25-15
172 Chaos_Overlord 12.9% 4511 05-25-15
173 Valfore 12.4% 4534 05-25-15
174 GarnetPrincess 12.1% 4550 05-25-15
175 ShinigamiMachine 12.0% 4557 05-25-15
176 soniccoloursunleashed 11.9% 4561 05-25-15
177 Sonicsuperstar1 11.5% 4583 05-25-15
178 FocusSight64 11.1% 4605 05-25-15
179 booo95 10.9% 4612 05-25-15
180 SirTobbii 10.9% 4613 05-25-15
181 Werey 10.9% 4614 05-25-15
182 Mo Player Banned 10.5% 4631 05-25-15
183 sonicspeed 10.4% 4638 05-25-15
184 Venick409 10.0% 4662 05-25-15
185 Sithwarrior26 9.6% 4680 05-25-15
186 ingx24 9.2% 4699 05-25-15
187 CyberShadow 9.0% 4711 05-25-15
188 Fozer 8.7% 4726 05-25-15
189 Colomb_30 8.6% 4734 05-25-15
190 Regano1000 8.3% 4746 05-25-15
191 1stKirbyever 8.0% 4761 05-25-15
192 Brian_pso 7.7% 4776 05-25-15
193 nuckrieg 7.6% 4782 05-25-15
194 douglas 7.5% 4791 05-25-15
195 Th4tN1nj4Turtl3 7.4% 4793 05-25-15
196 TakaRikka 7.4% 4795 05-25-15
197 Zip 7.3% 4797 05-25-15
198 Mariosonic15 7.1% 4812 05-25-15
199 wheatrich 6.9% 4818 05-25-15
200 MStitomix 6.8% 4827 05-25-15
201 ieatatsonic 6.7% 4832 05-25-15
202 HermitHelmet 6.6% 4834 05-25-15
203 niscool 6.4% 4844 05-25-15
204 Cort_pso 6.4% 4846 05-25-15
205 Got4n 6.4% 4847 05-25-15
206 Triseena 6.4% 4848 05-25-15
207 Jose_15 6.1% 4863 05-25-15
208 Artie 5.9% 4873 05-25-15
209 BlankTH 5.8% 4875 05-25-15
210 SuperSonicfan9595 5.5% 4890 05-25-15
211 Ace747 5.5% 4891 05-25-15
212 HHNNBBHHN 5.5% 4893 05-25-15
213 Richied 5.5% 4894 05-25-15
214 Paixii 5.3% 4905 05-25-15
215 BallzeH 4.9% 4922 05-25-15
215 FSSRandomvids 4.9% 4922 05-25-15
217 slade23 4.9% 4923 05-25-15
218 ArcticDragon 4.9% 4925 05-25-15
219 Mankster101 4.8% 4927 05-25-15
220 PsyBorg 4.8% 4929 05-25-15
221 BecauseWarAnvil 4.7% 4932 05-25-15
221 Jamixesa 4.7% 4932 05-25-15
223 Crydio 4.6% 4937 05-25-15
224 Nickson98 4.6% 4940 05-25-15
225 TheUltraBlur 4.4% 4948 05-25-15
226 ReuelBrony 4.4% 4950 05-25-15
227 stanski 4.3% 4956 05-25-15
228 MarewBFN 4.2% 4959 05-25-15
229 tal39h 4.1% 4963 05-25-15
230 Blue Infamy 4.0% 4972 05-25-15
231 knuckles_sonic8 3.9% 4973 05-25-15
231 p0ker 3.9% 4973 05-25-15
233 ErrortheCucco 3.8% 4982 05-25-15
234 Rikum22 3.7% 4985 05-25-15
235 sonic1001 3.6% 4993 05-25-15
236 TheChaosEmeraIds 3.5% 4995 05-25-15
237 syco1098 3.4% 5000 05-25-15
238 AJSIV 3.4% 5003 05-25-15
239 Sonic the Hedgehod16 3.3% 5005 05-25-15
240 sonicfan9 3.3% 5008 05-25-15
241 Calfd 3.3% 5009 05-25-15
242 themachoman202 2.9% 5025 05-25-15
243 MK 2.9% 5028 05-25-15
244 BlackArmsShadow 2.8% 5034 05-25-15
244 Fivavoa 2.8% 5034 05-25-15
246 Mr. Jones 2.7% 5035 05-25-15
247 djmat 2.7% 5036 05-25-15
248 arcfx1985 2.7% 5037 05-25-15
248 ptorflaxendrosis 2.7% 5037 05-25-15
250 FlandreScarlet9999vr 2.6% 5042 05-25-15
250 Sonique Hedgehog 2.6% 5042 05-25-15
252 Zeldocto 2.5% 5047 05-25-15
253 KaM Mark MaK 2.4% 5051 05-25-15
254 BeeAwwb 2.4% 5055 05-25-15
255 ShadouZaHejjihoggu 2.3% 5058 05-25-15
256 darkstarblaze 2.2% 5066 05-25-15
257 darkersupershadic 2.1% 5067 05-25-15
258 SpiritDragon1995 2.1% 5068 05-25-15
259 sonic29887 2.1% 5070 05-25-15
260 Sarger001 2.0% 5072 05-25-15
261 Grady219 2.0% 5073 05-25-15
262 Jawaah 1.9% 5077 05-25-15
263 shadowblast63 Player Banned 1.9% 5078 05-25-15
264 Antek 1.8% 5082 05-25-15
265 Klaus 1.8% 5084 05-25-15
266 BioShadow 1.7% 5088 05-25-15
267 SkyBon 1.5% 5102 05-25-15
268 Shanekilz 1.4% 5104 05-25-15
269 isaihtb11 1.3% 5109 05-25-15
270 OhNoes! 1.3% 5110 05-25-15
271 zaktu40 1.3% 5111 05-25-15
272 gaara1234 1.2% 5114 05-25-15
273 S-MS32X-S 1.2% 5115 05-25-15
274 MastaToken 1.1% 5121 05-25-15
275 Mister_Slick 1.0% 5125 05-25-15
276 Sonic06Fan 1.0% 5127 05-25-15
277 Rush Hero 1.0% 5128 05-25-15
278 SonicMega167 0.9% 5131 05-25-15
279 gamed00d 0.8% 5134 05-25-15
279 SilverK 0.8% 5134 05-25-15
281 oTaiIilLsS 0.8% 5136 05-25-15
282 Egor305 0.7% 5143 05-25-15
283 Burningskull123 0.5% 5150 05-25-15
284 Heroes_Hater 0.5% 5152 05-25-15
285 Sonicontherun 0.3% 5160 05-25-15
286 antiwwe 0.2% 5166 05-25-15
287 Iwannabelink 0.2% 5169 05-25-15
288 Genuine Hedgehog 0.1% 5170 05-25-15
289 dragondragon18 0.1% 5173 05-25-15
290 SonicK100 0.1% 5174 05-25-15
291 Tyrouble 0.0% 5179 05-25-15
292 LancexExWx 0.0% 5180 05-25-15
292 neji_hyuuga 0.0% 5180 05-25-15
292 Over 0.0% 5180 05-25-15
292 sdj6707 Player Banned 0.0% 5180 05-25-15
292 Tran Sonic Fan Player Banned 0.0% 5180 05-25-15

This page is using the New Data Table System. [FUTURE]

Game ID: 3 | Category ID: 1
Hits: 7,315 | Hits This Month: 46 | DB Calls: 24 | Mem Usage: 5.44 MB | Time: 0.13s | Printable

The Sonic Center v3.9
Copyright 2003-2011 by The Sonic Center Team.